Time;durP1;ratioP1;P1;durP2;ratioP2;P2;SDS_P1;SDS_P2;PMS_P1;PMS_P2;Temp;Humidity;BMP_temperature;BMP_pressure;BME280_temperature;BME280_humidity;BME280_pressure;Samples;Min_cycle;Max_cycle;Signal;HPM_P1;HPM_P2
2022/04/13 00:00:58;;;;;;;9.07;7.17;;;10.20;54.90;;;;;;5056392;28;20189;-63
2022/04/13 00:03:25;;;;;;;8.90;7.17;;;10.10;55.10;;;;;;5053767;28;20752;-62
2022/04/13 00:05:50;;;;;;;9.87;7.57;;;10.20;55.30;;;;;;5066844;28;20181;-62
2022/04/13 00:08:16;;;;;;;14.13;7.60;;;10.20;55.50;;;;;;5060733;28;20211;-64
2022/04/13 00:10:43;;;;;;;10.97;7.53;;;10.10;55.30;;;;;;5063429;28;20183;-64
2022/04/13 00:13:08;;;;;;;9.33;8.03;;;10.00;55.20;;;;;;5066406;28;20228;-64
2022/04/13 00:15:34;;;;;;;11.87;7.50;;;10.00;55.50;;;;;;5061917;28;20372;-64
2022/04/13 00:18:04;;;;;;;10.17;7.80;;;10.00;55.60;;;;;;5059820;28;20195;-65
2022/04/13 00:20:30;;;;;;;10.70;7.50;;;9.90;56.70;;;;;;5063149;28;20270;-63
2022/04/13 00:22:55;;;;;;;9.50;7.40;;;9.90;57.20;;;;;;5059625;28;20211;-63
2022/04/13 00:25:21;;;;;;;11.80;7.93;;;9.80;57.10;;;;;;5065110;28;20690;-63
2022/04/13 00:27:46;;;;;;;9.37;6.73;;;9.80;57.20;;;;;;5062901;28;20539;-64
2022/04/13 00:30:12;;;;;;;9.63;7.53;;;9.80;57.80;;;;;;5066645;28;20199;-65
2022/04/13 00:32:37;;;;;;;10.40;7.60;;;9.70;57.60;;;;;;5060076;28;20217;-66
2022/04/13 00:35:04;;;;;;;8.87;7.17;;;9.70;57.60;;;;;;5060761;28;20257;-59
2022/04/13 00:37:31;;;;;;;12.13;7.17;;;9.70;57.70;;;;;;5063190;28;20221;-65
2022/04/13 00:39:56;;;;;;;9.47;7.30;;;9.60;57.80;;;;;;5062257;28;20242;-65
2022/04/13 00:42:22;;;;;;;10.87;7.40;;;9.60;58.00;;;;;;5063437;28;20254;-63
2022/04/13 00:44:47;;;;;;;8.87;7.43;;;9.60;58.20;;;;;;5062308;28;20203;-63
2022/04/13 00:47:13;;;;;;;10.43;7.20;;;9.60;58.30;;;;;;5061469;28;20217;-64
2022/04/13 00:49:40;;;;;;;11.97;7.57;;;9.50;58.70;;;;;;5060868;28;20207;-65
2022/04/13 00:52:06;;;;;;;10.77;7.60;;;9.50;58.50;;;;;;5061824;28;20235;-64
2022/04/13 00:54:33;;;;;;;10.67;7.30;;;9.50;59.00;;;;;;5060483;28;20205;-65
2022/04/13 00:57:00;;;;;;;9.13;7.00;;;9.50;59.10;;;;;;5061210;28;20192;-65
2022/04/13 00:59:26;;;;;;;12.63;7.93;;;9.50;59.30;;;;;;5063964;28;20677;-64
2022/04/13 01:01:57;;;;;;;7.83;6.73;;;9.40;59.10;;;;;;5061629;28;20185;-66
2022/04/13 01:04:24;;;;;;;11.20;7.57;;;9.40;59.50;;;;;;5060533;28;20203;-65
2022/04/13 01:06:50;;;;;;;11.77;7.53;;;9.40;59.40;;;;;;5061288;28;20356;-65
2022/04/13 01:09:17;;;;;;;12.37;9.23;;;9.40;59.40;;;;;;5064873;28;20289;-63
2022/04/13 01:11:43;;;;;;;9.37;7.83;;;9.30;59.60;;;;;;5067812;28;20198;-63
2022/04/13 01:14:09;;;;;;;13.07;8.17;;;9.40;60.00;;;;;;5068438;28;20256;-64
2022/04/13 01:16:37;;;;;;;10.00;7.70;;;9.30;60.20;;;;;;5066525;28;20677;-63
2022/04/13 01:19:04;;;;;;;11.27;8.40;;;9.30;60.60;;;;;;5055072;28;20260;-65
2022/04/13 01:22:03;;;;;;;9.70;7.50;;;9.30;60.40;;;;;;5067683;28;20222;-64
2022/04/13 01:24:29;;;;;;;11.83;7.17;;;9.20;60.60;;;;;;5058163;28;20227;-64
2022/04/13 01:26:55;;;;;;;10.80;7.33;;;9.20;60.80;;;;;;5060637;28;20210;-65
2022/04/13 01:29:21;;;;;;;11.07;7.97;;;9.10;61.50;;;;;;5055160;28;20194;-64
2022/04/13 01:31:47;;;;;;;13.30;7.67;;;9.10;62.10;;;;;;5056546;28;20950;-64
2022/04/13 01:34:13;;;;;;;10.13;7.90;;;9.10;61.60;;;;;;5052802;28;21048;-64
2022/04/13 01:36:39;;;;;;;9.77;7.20;;;9.10;61.80;;;;;;5067640;28;20195;-64
2022/04/13 01:39:06;;;;;;;11.57;8.07;;;9.00;62.00;;;;;;5064509;28;20198;-65
2022/04/13 01:41:32;;;;;;;10.10;8.57;;;9.00;62.00;;;;;;5058716;28;20238;-64
2022/04/13 01:43:58;;;;;;;8.30;7.40;;;9.00;62.30;;;;;;5065394;28;20216;-64
2022/04/13 01:46:23;;;;;;;9.80;7.90;;;9.00;63.10;;;;;;5064882;28;20199;-65
2022/04/13 01:48:49;;;;;;;8.93;7.63;;;9.00;62.70;;;;;;5053120;28;20638;-65
2022/04/13 01:51:17;;;;;;;11.33;8.00;;;8.90;63.00;;;;;;5067006;28;20652;-65
2022/04/13 01:53:43;;;;;;;11.53;7.50;;;8.90;63.50;;;;;;5065589;28;20753;-64
2022/04/13 01:56:08;;;;;;;9.37;7.50;;;8.90;63.40;;;;;;5060548;28;20183;-61
2022/04/13 01:58:33;;;;;;;8.53;7.60;;;8.90;63.70;;;;;;5049302;28;20231;-58
2022/04/13 02:00:59;;;;;;;11.80;8.53;;;8.90;64.20;;;;;;5067609;28;20178;-58
2022/04/13 02:03:26;;;;;;;11.03;8.03;;;8.80;63.90;;;;;;5065123;28;20616;-59
2022/04/13 02:05:53;;;;;;;11.70;9.50;;;8.80;64.00;;;;;;5066998;28;20190;-58
2022/04/13 02:08:22;;;;;;;12.97;8.80;;;8.80;64.90;;;;;;5064872;28;20275;-58
2022/04/13 02:10:49;;;;;;;13.97;10.53;;;8.70;64.80;;;;;;5054305;28;20205;-58
2022/04/13 02:13:14;;;;;;;10.50;9.33;;;8.70;65.00;;;;;;5065269;28;20210;-57
2022/04/13 02:15:41;;;;;;;12.40;9.93;;;8.60;65.10;;;;;;5056404;28;20196;-58
2022/04/13 02:18:06;;;;;;;15.67;9.43;;;8.60;65.30;;;;;;5064450;28;20219;-57
2022/04/13 02:20:32;;;;;;;11.63;9.43;;;8.60;65.70;;;;;;5064145;28;20238;-58
2022/04/13 02:22:58;;;;;;;12.70;8.03;;;8.60;66.30;;;;;;5053751;28;20214;-58
2022/04/13 02:25:24;;;;;;;13.73;8.40;;;8.60;66.60;;;;;;5059718;28;20249;-58
2022/04/13 02:27:50;;;;;;;10.50;7.33;;;8.60;66.50;;;;;;5050631;28;20195;-58
2022/04/13 02:30:15;;;;;;;12.50;8.50;;;8.60;66.60;;;;;;5057204;28;20318;-58
2022/04/13 02:32:45;;;;;;;10.30;8.43;;;8.50;66.70;;;;;;5053755;28;20197;-58
2022/04/13 02:35:12;;;;;;;10.53;7.93;;;8.50;66.70;;;;;;5056796;28;20203;-58
2022/04/13 02:37:38;;;;;;;13.97;8.47;;;8.50;66.90;;;;;;5052920;28;20627;-58
2022/04/13 02:40:06;;;;;;;10.37;7.57;;;8.50;67.30;;;;;;5065854;28;20194;-58
2022/04/13 02:42:35;;;;;;;9.37;7.40;;;8.50;67.50;;;;;;5064289;28;20230;-58
2022/04/13 02:45:02;;;;;;;11.60;7.50;;;8.40;68.00;;;;;;5066318;28;20656;-57
2022/04/13 02:47:27;;;;;;;10.80;7.63;;;8.40;68.30;;;;;;5055923;28;20202;-57
2022/04/13 02:49:54;;;;;;;14.03;8.30;;;8.40;68.50;;;;;;5063410;28;20579;-58
2022/04/13 02:52:20;;;;;;;10.80;7.53;;;8.40;69.10;;;;;;5054122;28;20266;-57
2022/04/13 02:54:45;;;;;;;12.63;7.47;;;8.30;69.60;;;;;;5062480;28;20660;-58
2022/04/13 02:57:11;;;;;;;9.33;7.47;;;8.30;69.30;;;;;;5063175;28;20799;-58
2022/04/13 02:59:36;;;;;;;10.43;7.43;;;8.30;69.70;;;;;;5055688;28;20188;-57
2022/04/13 03:02:04;;;;;;;11.33;8.47;;;8.30;69.70;;;;;;5054715;28;20210;-57
2022/04/13 03:04:32;;;;;;;10.80;8.67;;;8.20;69.90;;;;;;5064503;28;20187;-60
2022/04/13 03:06:58;;;;;;;12.43;7.70;;;8.20;70.10;;;;;;5054225;28;20195;-58
2022/04/13 03:09:23;;;;;;;10.60;8.13;;;8.30;71.10;;;;;;5059261;28;20174;-59
2022/04/13 03:11:49;;;;;;;8.90;7.70;;;8.20;70.80;;;;;;5052596;28;20636;-57
2022/04/13 03:14:14;;;;;;;11.50;7.60;;;8.20;71.40;;;;;;5058346;28;20222;-57
2022/04/13 03:16:40;;;;;;;12.53;7.90;;;8.20;71.50;;;;;;5053820;28;20447;-57
2022/04/13 03:19:05;;;;;;;9.00;7.30;;;8.20;71.80;;;;;;5063721;28;20230;-57
2022/04/13 03:21:32;;;;;;;11.37;6.90;;;8.20;72.10;;;;;;5065149;28;20188;-58
2022/04/13 03:23:57;;;;;;;12.20;7.33;;;8.10;72.20;;;;;;5053743;28;20240;-57
2022/04/13 03:26:23;;;;;;;11.33;7.30;;;8.10;72.40;;;;;;5052045;28;20235;-58
2022/04/13 03:28:49;;;;;;;10.17;7.97;;;8.10;73.00;;;;;;5062989;28;20198;-57
2022/04/13 03:31:15;;;;;;;10.47;8.37;;;8.10;73.10;;;;;;5053756;28;20661;-58
2022/04/13 03:33:40;;;;;;;12.37;7.73;;;8.10;73.40;;;;;;5052216;28;20244;-57
2022/04/13 03:36:06;;;;;;;12.33;8.23;;;8.10;73.90;;;;;;5054174;28;20197;-57
2022/04/13 03:38:31;;;;;;;10.27;7.60;;;8.00;73.70;;;;;;5052888;28;20206;-59
2022/04/13 03:40:57;;;;;;;12.53;8.10;;;8.10;74.40;;;;;;5052853;28;20851;-57
2022/04/13 03:43:22;;;;;;;11.10;8.07;;;8.10;74.70;;;;;;5063402;28;20244;-58
2022/04/13 03:45:47;;;;;;;12.20;7.63;;;8.00;74.70;;;;;;5050579;28;20201;-58
2022/04/13 03:48:13;;;;;;;10.23;8.20;;;8.00;74.80;;;;;;5052304;28;20714;-58
2022/04/13 03:50:38;;;;;;;10.17;7.73;;;8.00;75.20;;;;;;5063171;28;20841;-58
2022/04/13 03:53:04;;;;;;;13.73;9.07;;;8.00;76.00;;;;;;5042528;28;20272;-58
2022/04/13 03:55:29;;;;;;;12.67;8.37;;;7.90;76.30;;;;;;5052428;28;20578;-58
2022/04/13 03:57:55;;;;;;;8.97;7.63;;;7.90;76.80;;;;;;5048641;28;20259;-57
2022/04/13 04:00:20;;;;;;;9.63;8.20;;;7.90;77.00;;;;;;5056282;28;20191;-60
2022/04/13 04:02:46;;;;;;;13.57;7.77;;;7.90;77.10;;;;;;5061674;28;20572;-59
2022/04/13 04:05:12;;;;;;;13.57;9.07;;;7.90;77.40;;;;;;5050246;28;20641;-59
2022/04/13 04:07:38;;;;;;;11.33;8.10;;;7.80;77.80;;;;;;5050457;28;20190;-59
2022/04/13 04:10:04;;;;;;;12.63;8.67;;;7.80;77.80;;;;;;5055344;28;20189;-58
2022/04/13 04:12:36;;;;;;;12.10;6.97;;;7.80;78.00;;;;;;5052903;28;20252;-59
2022/04/13 04:15:02;;;;;;;11.87;8.30;;;7.80;78.60;;;;;;5065233;28;20790;-59
2022/04/13 04:17:27;;;;;;;14.50;8.63;;;7.80;79.00;;;;;;5057782;28;20669;-58
2022/04/13 04:19:53;;;;;;;11.97;7.70;;;7.80;79.20;;;;;;5059812;28;20395;-58
2022/04/13 04:22:18;;;;;;;11.50;8.37;;;7.80;79.70;;;;;;5049316;28;20213;-58
2022/04/13 04:24:44;;;;;;;11.67;8.53;;;7.80;79.90;;;;;;5057253;28;20196;-58
2022/04/13 04:27:09;;;;;;;11.23;8.70;;;7.80;80.10;;;;;;5048791;28;20203;-58
2022/04/13 04:29:35;;;;;;;12.00;7.80;;;7.70;80.10;;;;;;5062537;28;20209;-57
2022/04/13 04:32:01;;;;;;;14.47;7.93;;;7.70;80.70;;;;;;5051077;28;20282;-58
2022/04/13 04:34:27;;;;;;;11.27;7.60;;;7.70;80.90;;;;;;5043426;28;20673;-58
2022/04/13 04:36:52;;;;;;;12.67;7.93;;;7.70;81.40;;;;;;5060740;28;20190;-57
2022/04/13 04:39:18;;;;;;;11.43;8.50;;;7.70;81.70;;;;;;5056243;28;20668;-57
2022/04/13 04:41:44;;;;;;;10.43;8.17;;;7.70;82.20;;;;;;5056251;28;20247;-58
2022/04/13 04:44:10;;;;;;;14.57;8.10;;;7.70;82.40;;;;;;5061833;28;20209;-58
2022/04/13 04:46:36;;;;;;;13.60;8.67;;;7.80;82.50;;;;;;5055637;28;20205;-57
2022/04/13 04:49:02;;;;;;;10.13;7.87;;;7.80;83.40;;;;;;5045338;28;20207;-57
2022/04/13 04:51:30;;;;;;;11.13;7.77;;;7.80;83.40;;;;;;5052007;28;20341;-57
2022/04/13 04:53:56;;;;;;;13.83;9.23;;;7.80;83.30;;;;;;5053980;28;20302;-58
2022/04/13 04:56:21;;;;;;;10.47;8.70;;;7.80;83.60;;;;;;5061130;28;20286;-58
2022/04/13 04:58:47;;;;;;;11.67;8.47;;;7.80;83.60;;;;;;5055767;28;20317;-58
2022/04/13 05:01:12;;;;;;;12.97;9.10;;;7.90;84.00;;;;;;5064514;28;20251;-59
2022/04/13 05:03:38;;;;;;;14.00;8.73;;;7.90;83.70;;;;;;5055681;28;20214;-58
2022/04/13 05:06:04;;;;;;;12.93;8.23;;;7.90;84.20;;;;;;5056935;28;20201;-58
2022/04/13 05:08:29;;;;;;;10.80;8.20;;;7.90;84.10;;;;;;5051845;28;20194;-58
2022/04/13 05:10:54;;;;;;;11.57;8.67;;;7.90;83.90;;;;;;5055993;28;20281;-58
2022/04/13 05:13:20;;;;;;;14.43;8.77;;;8.00;84.10;;;;;;5066570;28;20587;-58
2022/04/13 05:15:46;;;;;;;10.90;7.80;;;8.00;83.90;;;;;;5067902;28;20209;-58
2022/04/13 05:18:12;;;;;;;12.60;8.40;;;8.00;83.30;;;;;;5053399;28;20245;-59
2022/04/13 05:20:39;;;;;;;12.23;8.90;;;8.10;83.50;;;;;;5060799;28;20664;-57
2022/04/13 05:23:05;;;;;;;16.47;9.40;;;8.10;83.10;;;;;;5065340;28;20215;-58
2022/04/13 05:25:30;;;;;;;13.97;8.40;;;8.20;82.70;;;;;;5053967;28;20690;-58
2022/04/13 05:27:56;;;;;;;13.70;8.80;;;8.20;82.80;;;;;;5064091;28;20261;-58
2022/04/13 05:30:21;;;;;;;13.93;9.23;;;8.20;82.40;;;;;;5067616;28;20684;-59
2022/04/13 05:32:53;;;;;;;11.30;8.37;;;8.20;82.40;;;;;;5053397;28;20285;-59
2022/04/13 05:35:19;;;;;;;10.43;8.47;;;8.30;82.30;;;;;;5065029;28;20274;-59
2022/04/13 05:37:45;;;;;;;12.47;9.00;;;8.30;82.30;;;;;;5049378;28;20826;-60
2022/04/13 05:40:11;;;;;;;14.83;9.10;;;8.30;81.80;;;;;;5051213;28;20200;-60
2022/04/13 05:42:37;;;;;;;15.87;9.77;;;8.40;81.60;;;;;;5052436;28;20222;-59
2022/04/13 05:45:02;;;;;;;14.33;8.37;;;8.40;81.70;;;;;;5054917;28;20188;-59
2022/04/13 05:47:29;;;;;;;12.60;9.00;;;8.40;81.70;;;;;;5054473;28;20286;-60
2022/04/13 05:49:54;;;;;;;13.30;9.30;;;8.50;81.70;;;;;;5052473;28;20191;-59
2022/04/13 05:52:20;;;;;;;16.47;9.80;;;8.60;81.90;;;;;;5057525;28;20596;-59
2022/04/13 05:54:45;;;;;;;12.93;8.67;;;8.60;81.70;;;;;;5065656;28;20222;-58
2022/04/13 05:57:12;;;;;;;12.97;8.67;;;8.70;82.10;;;;;;5059096;28;20222;-58
2022/04/13 05:59:38;;;;;;;10.00;8.10;;;8.80;81.80;;;;;;5046145;28;20295;-58
2022/04/13 06:02:04;;;;;;;15.07;9.90;;;8.80;81.70;;;;;;5055522;28;20198;-58
2022/04/13 06:04:30;;;;;;;15.67;8.73;;;8.90;81.00;;;;;;5064115;28;20260;-58
2022/04/13 06:06:55;;;;;;;14.87;8.70;;;9.00;81.40;;;;;;5060880;28;20194;-58
2022/04/13 06:09:23;;;;;;;12.97;8.87;;;9.10;80.50;;;;;;5050219;28;20202;-58
2022/04/13 06:11:49;;;;;;;12.57;9.17;;;9.10;80.90;;;;;;5055418;28;20669;-57
2022/04/13 06:14:15;;;;;;;18.10;9.63;;;9.20;80.50;;;;;;5065069;28;20202;-58
2022/04/13 06:16:41;;;;;;;14.93;9.60;;;9.20;80.40;;;;;;5054492;28;20203;-59
2022/04/13 06:19:07;;;;;;;12.50;8.87;;;9.30;80.20;;;;;;5065066;28;21078;-57
2022/04/13 06:21:32;;;;;;;13.97;8.60;;;9.40;80.30;;;;;;5063879;28;20192;-59
2022/04/13 06:23:58;;;;;;;13.00;9.23;;;9.40;79.90;;;;;;5045890;28;20226;-59
2022/04/13 06:26:23;;;;;;;16.30;9.83;;;9.50;80.00;;;;;;5052016;28;20219;-58
2022/04/13 06:28:49;;;;;;;14.47;8.60;;;9.60;79.50;;;;;;5046048;28;20204;-58
2022/04/13 06:31:14;;;;;;;14.63;8.83;;;9.70;79.30;;;;;;5065852;28;21126;-58
2022/04/13 06:33:40;;;;;;;11.77;8.37;;;9.70;79.20;;;;;;5056057;28;20207;-57
2022/04/13 06:36:06;;;;;;;17.30;9.17;;;9.80;78.30;;;;;;5066431;28;20196;-58
2022/04/13 06:38:32;;;;;;;12.33;9.43;;;9.90;78.20;;;;;;5064240;28;20208;-59
2022/04/13 06:40:57;;;;;;;10.10;8.70;;;9.90;78.20;;;;;;5066131;28;20187;-58
2022/04/13 06:43:23;;;;;;;14.73;9.47;;;10.10;76.90;;;;;;5064500;28;20430;-60
2022/04/13 06:45:48;;;;;;;10.27;9.27;;;10.20;77.00;;;;;;5062871;28;20193;-58
2022/04/13 06:48:14;;;;;;;12.70;8.87;;;10.30;76.70;;;;;;5055590;28;20558;-57
2022/04/13 06:50:39;;;;;;;14.90;9.90;;;10.30;75.70;;;;;;5046439;28;20177;-59
2022/04/13 06:53:05;;;;;;;15.00;9.47;;;10.40;75.90;;;;;;5055082;28;20219;-59
2022/04/13 06:55:30;;;;;;;15.00;9.67;;;10.40;75.30;;;;;;5064441;28;20197;-59
2022/04/13 06:57:56;;;;;;;14.70;10.23;;;10.50;74.80;;;;;;5049099;28;20208;-59
2022/04/13 07:00:22;;;;;;;15.77;8.90;;;10.60;75.60;;;;;;5057418;28;20236;-59
2022/04/13 07:02:48;;;;;;;13.70;9.00;;;10.60;75.30;;;;;;5052405;28;20272;-59
2022/04/13 07:05:13;;;;;;;13.47;9.07;;;10.70;75.30;;;;;;5049900;28;20201;-59
2022/04/13 07:07:39;;;;;;;15.37;9.73;;;10.90;74.10;;;;;;5052474;28;20748;-59
2022/04/13 07:10:04;;;;;;;13.33;8.93;;;11.00;73.90;;;;;;5060082;28;20189;-58
2022/04/13 07:12:35;;;;;;;14.67;9.60;;;11.00;74.30;;;;;;5053005;28;20315;-58
2022/04/13 07:15:01;;;;;;;15.73;8.53;;;11.10;73.80;;;;;;5045246;28;20177;-58
2022/04/13 07:17:26;;;;;;;13.33;8.63;;;11.30;73.70;;;;;;5049899;28;20332;-59
2022/04/13 07:19:51;;;;;;;14.40;9.97;;;11.40;73.20;;;;;;5065769;28;20277;-59
2022/04/13 07:22:17;;;;;;;12.07;8.87;;;11.40;73.30;;;;;;5046336;28;20215;-58
2022/04/13 07:24:43;;;;;;;15.83;8.80;;;11.50;72.60;;;;;;5062971;28;20201;-58
2022/04/13 07:27:08;;;;;;;11.63;8.73;;;11.60;72.30;;;;;;5060778;28;20317;-58
2022/04/13 07:29:33;;;;;;;15.90;9.03;;;11.70;72.20;;;;;;5045248;28;20199;-59
2022/04/13 07:31:59;;;;;;;12.70;9.33;;;11.80;71.30;;;;;;5047388;28;20263;-58
2022/04/13 07:34:24;;;;;;;15.77;9.93;;;11.80;71.00;;;;;;5056495;28;20281;-59
2022/04/13 07:36:50;;;;;;;13.77;9.43;;;11.80;70.80;;;;;;5053480;28;20288;-58
2022/04/13 07:39:16;;;;;;;12.47;8.60;;;11.90;71.00;;;;;;5047866;28;20231;-59
2022/04/13 07:41:41;;;;;;;11.53;8.27;;;11.90;70.70;;;;;;5057233;28;20196;-60
2022/04/13 07:44:07;;;;;;;14.00;8.90;;;12.00;70.80;;;;;;5044403;28;20272;-59
2022/04/13 07:46:32;;;;;;;13.63;8.93;;;12.10;70.60;;;;;;5063355;28;20243;-59
2022/04/13 07:48:58;;;;;;;16.17;9.50;;;12.20;70.90;;;;;;5049497;28;20750;-58
2022/04/13 07:51:23;;;;;;;10.27;8.57;;;12.30;70.70;;;;;;5047976;28;20332;-60
2022/04/13 07:53:49;;;;;;;10.50;8.67;;;12.40;69.50;;;;;;5055592;28;20212;-59
2022/04/13 07:56:14;;;;;;;12.67;9.70;;;12.50;69.70;;;;;;5061060;28;20188;-59
2022/04/13 07:58:40;;;;;;;12.43;8.30;;;12.60;69.10;;;;;;5052208;28;20214;-58
2022/04/13 08:01:05;;;;;;;13.87;8.97;;;12.70;69.00;;;;;;5063736;28;20324;-59
2022/04/13 08:03:31;;;;;;;13.00;8.87;;;12.80;68.50;;;;;;5063290;28;20257;-59
2022/04/13 08:05:57;;;;;;;14.27;9.17;;;12.90;68.30;;;;;;5064365;28;20521;-58
2022/04/13 08:08:23;;;;;;;15.27;9.17;;;12.90;68.20;;;;;;5052058;28;20202;-58
2022/04/13 08:10:48;;;;;;;14.87;9.33;;;13.00;68.70;;;;;;5057862;28;20197;-59
2022/04/13 08:13:14;;;;;;;12.20;9.40;;;13.20;68.20;;;;;;5050023;28;20200;-60
2022/04/13 08:15:39;;;;;;;12.13;8.80;;;13.40;68.50;;;;;;5056415;28;20196;-58
2022/04/13 08:18:05;;;;;;;14.93;9.37;;;13.40;67.20;;;;;;5058875;28;20226;-58
2022/04/13 08:20:31;;;;;;;13.23;9.83;;;13.60;68.00;;;;;;5061193;28;20554;-58
2022/04/13 08:22:57;;;;;;;16.80;9.80;;;13.70;67.20;;;;;;5054666;28;20218;-58
2022/04/13 08:25:23;;;;;;;14.27;8.93;;;13.70;67.00;;;;;;5058297;28;20210;-59
2022/04/13 08:27:48;;;;;;;13.73;8.80;;;13.80;66.70;;;;;;5058877;28;20202;-58
2022/04/13 08:30:14;;;;;;;18.00;8.63;;;13.90;67.00;;;;;;5060553;28;20170;-59
2022/04/13 08:32:41;;;;;;;18.10;9.60;;;14.10;66.90;;;;;;5066669;28;20201;-59
2022/04/13 08:35:09;;;;;;;15.80;9.37;;;14.20;66.00;;;;;;5062613;28;20720;-59
2022/04/13 08:37:35;;;;;;;12.50;8.43;;;14.20;65.00;;;;;;5060582;28;20198;-59
2022/04/13 08:40:01;;;;;;;13.73;9.10;;;14.20;64.70;;;;;;5060679;28;20251;-58
2022/04/13 08:42:31;;;;;;;12.80;8.87;;;14.20;64.20;;;;;;5063099;28;20245;-59
2022/04/13 08:45:03;;;;;;;14.10;9.67;;;14.20;63.70;;;;;;5057913;28;20197;-59
2022/04/13 08:47:31;;;;;;;15.50;9.87;;;14.20;63.90;;;;;;5060320;28;20186;-60
2022/04/13 08:49:57;;;;;;;15.83;10.03;;;14.10;64.70;;;;;;5059152;28;20189;-60
2022/04/13 08:52:31;;;;;;;12.40;9.20;;;14.20;65.00;;;;;;5057696;28;20308;-58
2022/04/13 08:55:05;;;;;;;15.40;9.57;;;14.20;64.10;;;;;;5058810;28;20204;-60
2022/04/13 08:57:38;;;;;;;15.50;9.20;;;14.30;63.90;;;;;;5063399;28;20195;-59
2022/04/13 09:00:15;;;;;;;13.43;8.17;;;14.40;63.70;;;;;;5059014;28;20243;-58
2022/04/13 09:02:50;;;;;;;17.47;9.37;;;14.50;63.70;;;;;;5066322;28;20736;-59
2022/04/13 09:05:27;;;;;;;13.07;9.00;;;14.60;63.50;;;;;;5056230;28;20178;-58
2022/04/13 09:08:19;;;;;;;14.13;9.50;;;14.60;63.30;;;;;;5053681;28;20216;-59
2022/04/13 09:10:46;;;;;;;12.37;9.60;;;14.70;63.30;;;;;;5059547;28;20219;-58
2022/04/13 09:13:13;;;;;;;12.57;9.27;;;14.80;63.10;;;;;;5054738;28;20870;-59
2022/04/13 09:15:40;;;;;;;13.47;9.07;;;14.90;63.40;;;;;;5062792;28;20186;-59
2022/04/13 09:18:09;;;;;;;14.63;10.37;;;15.00;62.70;;;;;;5058818;28;20241;-59
2022/04/13 09:20:39;;;;;;;11.57;8.63;;;15.20;62.40;;;;;;5050338;28;20270;-58
2022/04/13 09:23:06;;;;;;;13.83;10.10;;;15.30;62.30;;;;;;5045878;28;20199;-59
2022/04/13 09:25:33;;;;;;;17.10;10.13;;;15.40;62.20;;;;;;5058010;28;20205;-59
2022/04/13 09:28:01;;;;;;;15.60;10.30;;;15.50;61.70;;;;;;5065554;28;20640;-59
2022/04/13 09:30:27;;;;;;;13.37;9.40;;;15.50;61.40;;;;;;5054582;28;20187;-59
2022/04/13 09:32:54;;;;;;;14.90;9.20;;;15.50;62.20;;;;;;5055937;28;20194;-59
2022/04/13 09:35:21;;;;;;;13.13;8.93;;;15.50;61.80;;;;;;5067950;28;20627;-58
2022/04/13 09:37:46;;;;;;;15.10;9.10;;;15.50;62.40;;;;;;5064655;28;20227;-59
2022/04/13 09:40:35;;;;;;;13.10;9.17;;;15.70;62.10;;;;;;5063190;28;20209;-60
2022/04/13 09:43:34;;;;;;;14.43;9.23;;;15.70;62.10;;;;;;5052145;28;20308;-59
2022/04/13 09:46:00;;;;;;;12.20;8.80;;;15.90;62.40;;;;;;5063037;28;20197;-59
2022/04/13 09:48:27;;;;;;;13.20;8.77;;;16.00;61.30;;;;;;5056094;28;20209;-59
2022/04/13 09:50:57;;;;;;;12.03;8.43;;;16.00;60.80;;;;;;5054247;28;20567;-58
2022/04/13 09:53:22;;;;;;;14.40;9.53;;;16.20;62.20;;;;;;5064805;28;20696;-59
2022/04/13 09:55:54;;;;;;;20.20;9.47;;;16.30;60.90;;;;;;5067213;28;20201;-59
2022/04/13 09:58:22;;;;;;;16.73;9.00;;;16.40;60.60;;;;;;5053210;28;20283;-59
2022/04/13 10:00:49;;;;;;;15.57;12.90;;;16.50;60.60;;;;;;5063627;28;20289;-58
2022/04/13 10:03:17;;;;;;;13.70;10.03;;;16.60;60.20;;;;;;5054841;28;20975;-59
2022/04/13 10:05:49;;;;;;;14.63;8.90;;;16.70;60.30;;;;;;5066979;28;20195;-59
2022/04/13 10:08:15;;;;;;;14.23;8.70;;;16.90;61.80;;;;;;5045592;28;20789;-58
2022/04/13 10:10:43;;;;;;;15.43;10.73;;;17.10;59.50;;;;;;5050036;28;20202;-59
2022/04/13 10:13:09;;;;;;;12.37;8.77;;;17.10;59.40;;;;;;5064948;28;20638;-58
2022/04/13 10:15:35;;;;;;;15.77;9.30;;;17.10;59.30;;;;;;5052682;28;20194;-58
2022/04/13 10:18:01;;;;;;;14.47;9.50;;;17.10;59.10;;;;;;5062503;28;20206;-58
2022/04/13 10:20:45;;;;;;;14.30;10.30;;;17.10;58.90;;;;;;5062440;28;20207;-59
2022/04/13 10:23:11;;;;;;;11.33;8.67;;;17.20;58.90;;;;;;5063384;28;20215;-59
2022/04/13 10:25:37;;;;;;;18.77;10.03;;;17.30;59.20;;;;;;5047718;28;20302;-59
2022/04/13 10:28:03;;;;;;;14.57;9.80;;;17.40;58.70;;;;;;5047596;28;20275;-59
2022/04/13 10:30:37;;;;;;;13.97;9.23;;;17.50;58.80;;;;;;5056236;28;20191;-58
2022/04/13 10:33:08;;;;;;;13.90;9.97;;;17.70;58.80;;;;;;5065291;28;20275;-59
2022/04/13 10:35:36;;;;;;;14.90;9.53;;;17.70;58.50;;;;;;5059809;28;20762;-59
2022/04/13 10:38:03;;;;;;;13.53;10.03;;;17.80;58.30;;;;;;5064050;28;20208;-59
2022/04/13 10:40:39;;;;;;;11.97;8.87;;;17.90;57.60;;;;;;5061729;28;20205;-59
2022/04/13 10:43:07;;;;;;;13.83;9.87;;;18.00;58.60;;;;;;5065688;28;20217;-58
2022/04/13 10:45:34;;;;;;;13.47;9.67;;;18.10;58.40;;;;;;5060628;28;20205;-63
2022/04/13 10:48:05;;;;;;;12.17;8.37;;;18.20;57.40;;;;;;5062587;28;20241;-62
2022/04/13 10:51:08;;;;;;;15.03;9.27;;;18.40;58.30;;;;;;5054660;28;20201;-62
2022/04/13 10:53:46;;;;;;;13.03;9.30;;;18.60;56.20;;;;;;5013715;28;20767;-62
2022/04/13 10:56:12;;;;;;;11.17;8.77;;;18.90;57.30;;;;;;5052424;28;20300;-64
2022/04/13 10:59:10;;;;;;;12.70;8.40;;;19.10;54.80;;;;;;5058836;28;20686;-62
2022/04/13 11:01:53;;;;;;;14.00;8.30;;;19.30;55.80;;;;;;5060297;28;20242;-63
2022/04/13 11:04:21;;;;;;;12.23;8.77;;;19.50;54.50;;;;;;5062814;28;20198;-62
2022/04/13 11:06:48;;;;;;;9.40;7.40;;;19.80;52.80;;;;;;5065655;28;20181;-63
2022/04/13 11:09:25;;;;;;;8.53;7.47;;;20.00;52.90;;;;;;5062736;28;20620;-65
2022/04/13 11:11:52;;;;;;;15.53;7.87;;;20.30;52.80;;;;;;5061788;28;20178;-69
2022/04/13 11:14:23;;;;;;;12.93;9.47;;;20.40;53.60;;;;;;5051901;28;20186;-64
2022/04/13 11:17:13;;;;;;;10.00;8.47;;;20.60;52.00;;;;;;5065271;28;20222;-66
2022/04/13 11:19:40;;;;;;;10.77;8.48;;;20.70;53.30;;;;;;5052568;28;20207;-65
2022/04/13 11:22:06;;;;;;;12.63;9.30;;;21.00;52.10;;;;;;5060588;28;20214;-63
2022/04/13 11:24:36;;;;;;;10.90;9.17;;;21.00;52.20;;;;;;5061718;28;20218;-65
2022/04/13 11:27:06;;;;;;;10.30;8.63;;;21.00;51.50;;;;;;5047748;28;20204;-65
2022/04/13 11:29:42;;;;;;;12.63;8.75;;;21.10;51.50;;;;;;5048955;28;20198;-63
2022/04/13 11:32:10;;;;;;;10.45;8.27;;;21.30;52.60;;;;;;5054835;28;20257;-62
2022/04/13 11:34:41;;;;;;;8.43;7.55;;;21.50;51.20;;;;;;5054083;28;20239;-62
2022/04/13 11:37:14;;;;;;;10.65;8.15;;;21.60;52.90;;;;;;5050384;28;20671;-62
2022/04/13 11:39:49;;;;;;;11.15;8.57;;;21.90;50.70;;;;;;5062815;28;20221;-65
2022/04/13 11:42:20;;;;;;;9.85;8.30;;;22.00;51.20;;;;;;5052780;28;20890;-61
2022/04/13 11:44:47;;;;;;;9.77;7.70;;;22.10;50.40;;;;;;5051860;28;20641;-63
2022/04/13 11:47:15;;;;;;;12.32;9.13;;;22.20;49.90;;;;;;5059508;28;20324;-62
2022/04/13 11:49:57;;;;;;;14.30;7.90;;;22.50;48.70;;;;;;5049657;28;20220;-64
2022/04/13 11:52:43;;;;;;;12.20;7.65;;;22.50;48.80;;;;;;5055019;28;20233;-63
2022/04/13 11:55:24;;;;;;;12.40;8.52;;;22.60;48.80;;;;;;5052605;28;20210;-62
2022/04/13 11:58:07;;;;;;;12.80;8.70;;;22.80;48.80;;;;;;5063916;28;20193;-64
2022/04/13 12:00:52;;;;;;;11.30;7.38;;;22.90;48.70;;;;;;5053923;28;20202;-63
2022/04/13 12:03:30;;;;;;;8.45;7.53;;;22.70;48.00;;;;;;5056974;28;20590;-63
2022/04/13 12:05:56;;;;;;;9.65;7.38;;;22.50;48.00;;;;;;5047490;28;20702;-61
2022/04/13 12:08:26;;;;;;;10.13;8.10;;;22.40;48.50;;;;;;5053828;28;20680;-63
2022/04/13 12:10:57;;;;;;;9.38;7.82;;;22.40;47.80;;;;;;5049452;28;20267;-63
2022/04/13 12:13:24;;;;;;;9.40;7.78;;;22.60;47.80;;;;;;5044704;28;20190;-62
2022/04/13 12:15:51;;;;;;;11.25;7.22;;;22.80;48.60;;;;;;5046109;28;20568;-62
2022/04/13 12:18:22;;;;;;;6.75;6.00;;;23.20;47.50;;;;;;5048371;28;20247;-63
2022/04/13 12:20:49;;;;;;;13.73;6.90;;;23.60;46.00;;;;;;5056218;28;20202;-62
2022/04/13 12:23:15;;;;;;;9.75;6.55;;;23.70;45.50;;;;;;5056989;28;20205;-62
2022/04/13 12:25:42;;;;;;;7.72;6.93;;;24.00;45.90;;;;;;5052875;28;20308;-63
2022/04/13 12:28:08;;;;;;;7.90;6.38;;;24.30;45.60;;;;;;5057485;28;20186;-62
2022/04/13 12:30:33;;;;;;;10.57;6.30;;;25.10;43.80;;;;;;5061744;28;20194;-63
2022/04/13 12:33:13;;;;;;;8.77;6.53;;;25.60;43.60;;;;;;5054636;28;20202;-63
2022/04/13 12:35:46;;;;;;;8.20;6.82;;;25.40;42.20;;;;;;5057254;28;20206;-63
2022/04/13 12:38:28;;;;;;;8.32;6.60;;;25.90;41.70;;;;;;5060306;28;20675;-63
2022/04/13 12:41:18;;;;;;;7.20;5.85;;;26.10;42.20;;;;;;5053615;28;20194;-63
2022/04/13 12:43:50;;;;;;;7.90;6.15;;;26.50;40.60;;;;;;5054526;28;20688;-63
2022/04/13 12:46:20;;;;;;;8.77;6.82;;;26.50;41.40;;;;;;5059643;28;20194;-63